sensor_id;sensor_type;location;lat;lon;timestamp;P1;durP1;ratioP1;P2;durP2;ratioP2
39502;SDS011;26970;49.900;10.774;2023-08-31T00:00:29;5.78;;;1.90;;
39502;SDS011;26970;49.900;10.774;2023-08-31T00:02:56;3.90;;;1.77;;
39502;SDS011;26970;49.900;10.774;2023-08-31T00:05:22;6.93;;;1.85;;
39502;SDS011;26970;49.900;10.774;2023-08-31T00:07:49;4.03;;;1.88;;
39502;SDS011;26970;49.900;10.774;2023-08-31T00:10:16;3.10;;;1.80;;
39502;SDS011;26970;49.900;10.774;2023-08-31T00:12:42;5.03;;;2.20;;
39502;SDS011;26970;49.900;10.774;2023-08-31T00:15:08;3.58;;;1.58;;
39502;SDS011;26970;49.900;10.774;2023-08-31T00:17:34;3.90;;;2.15;;
39502;SDS011;26970;49.900;10.774;2023-08-31T00:20:00;3.70;;;1.80;;
39502;SDS011;26970;49.900;10.774;2023-08-31T00:22:25;3.47;;;2.13;;
39502;SDS011;26970;49.900;10.774;2023-08-31T00:24:51;2.83;;;1.90;;
39502;SDS011;26970;49.900;10.774;2023-08-31T00:27:17;4.53;;;1.80;;
39502;SDS011;26970;49.900;10.774;2023-08-31T00:29:43;4.10;;;2.13;;
39502;SDS011;26970;49.900;10.774;2023-08-31T00:32:14;4.32;;;1.92;;
39502;SDS011;26970;49.900;10.774;2023-08-31T00:34:40;5.07;;;2.05;;
39502;SDS011;26970;49.900;10.774;2023-08-31T00:37:05;3.83;;;2.00;;
39502;SDS011;26970;49.900;10.774;2023-08-31T00:39:31;3.85;;;2.10;;
39502;SDS011;26970;49.900;10.774;2023-08-31T00:41:58;3.30;;;1.88;;
39502;SDS011;26970;49.900;10.774;2023-08-31T00:44:24;3.72;;;2.08;;
39502;SDS011;26970;49.900;10.774;2023-08-31T00:46:49;3.30;;;1.90;;
39502;SDS011;26970;49.900;10.774;2023-08-31T00:49:15;7.93;;;2.30;;
39502;SDS011;26970;49.900;10.774;2023-08-31T00:51:42;3.50;;;2.00;;
39502;SDS011;26970;49.900;10.774;2023-08-31T00:54:13;4.68;;;2.13;;
39502;SDS011;26970;49.900;10.774;2023-08-31T00:56:41;3.75;;;1.98;;
39502;SDS011;26970;49.900;10.774;2023-08-31T00:59:06;4.53;;;2.53;;
39502;SDS011;26970;49.900;10.774;2023-08-31T01:01:57;3.28;;;1.70;;
39502;SDS011;26970;49.900;10.774;2023-08-31T01:08:10;4.27;;;2.40;;
39502;SDS011;26970;49.900;10.774;2023-08-31T01:10:29;4.65;;;2.38;;
39502;SDS011;26970;49.900;10.774;2023-08-31T01:13:13;4.97;;;2.20;;
39502;SDS011;26970;49.900;10.774;2023-08-31T01:15:49;3.10;;;1.95;;
39502;SDS011;26970;49.900;10.774;2023-08-31T01:18:18;4.13;;;2.15;;
39502;SDS011;26970;49.900;10.774;2023-08-31T01:20:58;4.85;;;2.13;;
39502;SDS011;26970;49.900;10.774;2023-08-31T01:23:54;3.60;;;2.42;;
39502;SDS011;26970;49.900;10.774;2023-08-31T01:26:21;4.47;;;2.03;;
39502;SDS011;26970;49.900;10.774;2023-08-31T01:28:48;3.70;;;2.33;;
39502;SDS011;26970;49.900;10.774;2023-08-31T01:31:14;2.75;;;1.80;;
39502;SDS011;26970;49.900;10.774;2023-08-31T01:33:41;5.57;;;2.10;;
39502;SDS011;26970;49.900;10.774;2023-08-31T01:36:08;5.13;;;2.40;;
39502;SDS011;26970;49.900;10.774;2023-08-31T01:38:41;4.10;;;2.03;;
39502;SDS011;26970;49.900;10.774;2023-08-31T01:41:10;6.22;;;2.20;;
39502;SDS011;26970;49.900;10.774;2023-08-31T01:43:40;3.90;;;2.03;;
39502;SDS011;26970;49.900;10.774;2023-08-31T01:46:07;4.28;;;2.10;;
39502;SDS011;26970;49.900;10.774;2023-08-31T01:48:39;4.60;;;2.28;;
39502;SDS011;26970;49.900;10.774;2023-08-31T01:51:06;4.28;;;2.15;;
39502;SDS011;26970;49.900;10.774;2023-08-31T01:53:32;5.32;;;2.40;;
39502;SDS011;26970;49.900;10.774;2023-08-31T01:55:58;4.07;;;2.20;;
39502;SDS011;26970;49.900;10.774;2023-08-31T01:58:23;5.25;;;2.65;;
39502;SDS011;26970;49.900;10.774;2023-08-31T02:00:49;5.57;;;2.70;;
39502;SDS011;26970;49.900;10.774;2023-08-31T02:03:14;4.97;;;2.67;;
39502;SDS011;26970;49.900;10.774;2023-08-31T02:05:40;7.07;;;2.80;;
39502;SDS011;26970;49.900;10.774;2023-08-31T02:08:06;6.65;;;2.50;;
39502;SDS011;26970;49.900;10.774;2023-08-31T02:10:31;6.10;;;2.88;;
39502;SDS011;26970;49.900;10.774;2023-08-31T02:12:57;6.40;;;3.08;;
39502;SDS011;26970;49.900;10.774;2023-08-31T02:15:23;5.57;;;3.50;;
39502;SDS011;26970;49.900;10.774;2023-08-31T02:17:48;5.47;;;3.47;;
39502;SDS011;26970;49.900;10.774;2023-08-31T02:20:14;7.45;;;3.70;;
39502;SDS011;26970;49.900;10.774;2023-08-31T02:22:39;6.47;;;3.45;;
39502;SDS011;26970;49.900;10.774;2023-08-31T02:25:05;5.30;;;3.58;;
39502;SDS011;26970;49.900;10.774;2023-08-31T02:27:31;8.95;;;3.58;;
39502;SDS011;26970;49.900;10.774;2023-08-31T02:29:57;5.72;;;3.42;;
39502;SDS011;26970;49.900;10.774;2023-08-31T02:32:22;6.10;;;3.50;;
39502;SDS011;26970;49.900;10.774;2023-08-31T02:34:49;6.55;;;3.30;;
39502;SDS011;26970;49.900;10.774;2023-08-31T02:37:15;5.85;;;3.70;;
39502;SDS011;26970;49.900;10.774;2023-08-31T02:39:41;7.78;;;3.38;;
39502;SDS011;26970;49.900;10.774;2023-08-31T02:42:06;8.50;;;3.55;;
39502;SDS011;26970;49.900;10.774;2023-08-31T02:44:32;9.02;;;3.67;;
39502;SDS011;26970;49.900;10.774;2023-08-31T02:46:58;6.30;;;3.67;;
39502;SDS011;26970;49.900;10.774;2023-08-31T02:49:24;6.65;;;4.13;;
39502;SDS011;26970;49.900;10.774;2023-08-31T02:51:49;7.20;;;4.30;;
39502;SDS011;26970;49.900;10.774;2023-08-31T02:54:15;6.30;;;4.70;;
39502;SDS011;26970;49.900;10.774;2023-08-31T02:56:41;7.32;;;4.70;;
39502;SDS011;26970;49.900;10.774;2023-08-31T02:59:06;6.22;;;4.32;;
39502;SDS011;26970;49.900;10.774;2023-08-31T03:01:32;6.90;;;4.18;;
39502;SDS011;26970;49.900;10.774;2023-08-31T03:03:57;9.25;;;4.70;;
39502;SDS011;26970;49.900;10.774;2023-08-31T03:06:23;8.10;;;4.43;;
39502;SDS011;26970;49.900;10.774;2023-08-31T03:08:48;7.22;;;4.63;;
39502;SDS011;26970;49.900;10.774;2023-08-31T03:11:14;7.65;;;5.03;;
39502;SDS011;26970;49.900;10.774;2023-08-31T03:13:40;6.75;;;4.93;;
39502;SDS011;26970;49.900;10.774;2023-08-31T03:16:06;6.45;;;4.15;;
39502;SDS011;26970;49.900;10.774;2023-08-31T03:18:32;9.13;;;4.68;;
39502;SDS011;26970;49.900;10.774;2023-08-31T03:20:58;9.32;;;5.03;;
39502;SDS011;26970;49.900;10.774;2023-08-31T03:23:24;10.88;;;4.40;;
39502;SDS011;26970;49.900;10.774;2023-08-31T03:25:50;11.10;;;4.97;;
39502;SDS011;26970;49.900;10.774;2023-08-31T03:28:15;8.07;;;5.07;;
39502;SDS011;26970;49.900;10.774;2023-08-31T03:30:41;10.63;;;5.18;;
39502;SDS011;26970;49.900;10.774;2023-08-31T03:33:09;9.13;;;5.18;;
39502;SDS011;26970;49.900;10.774;2023-08-31T03:35:35;8.52;;;5.57;;
39502;SDS011;26970;49.900;10.774;2023-08-31T03:38:01;13.05;;;5.32;;
39502;SDS011;26970;49.900;10.774;2023-08-31T03:40:27;8.95;;;5.50;;
39502;SDS011;26970;49.900;10.774;2023-08-31T03:42:53;6.82;;;5.00;;
39502;SDS011;26970;49.900;10.774;2023-08-31T03:45:19;7.78;;;5.47;;
39502;SDS011;26970;49.900;10.774;2023-08-31T03:47:45;9.30;;;5.80;;
39502;SDS011;26970;49.900;10.774;2023-08-31T03:50:10;8.60;;;4.93;;
39502;SDS011;26970;49.900;10.774;2023-08-31T03:52:36;8.50;;;6.30;;
39502;SDS011;26970;49.900;10.774;2023-08-31T03:55:02;7.55;;;5.97;;
39502;SDS011;26970;49.900;10.774;2023-08-31T03:57:27;7.85;;;5.50;;
39502;SDS011;26970;49.900;10.774;2023-08-31T03:59:53;10.95;;;5.63;;
39502;SDS011;26970;49.900;10.774;2023-08-31T04:02:19;7.78;;;6.28;;
39502;SDS011;26970;49.900;10.774;2023-08-31T04:04:44;11.43;;;5.93;;
39502;SDS011;26970;49.900;10.774;2023-08-31T04:07:10;9.02;;;6.25;;
39502;SDS011;26970;49.900;10.774;2023-08-31T04:09:35;8.15;;;6.40;;
39502;SDS011;26970;49.900;10.774;2023-08-31T04:12:01;10.05;;;6.47;;
39502;SDS011;26970;49.900;10.774;2023-08-31T04:14:26;10.75;;;6.18;;
39502;SDS011;26970;49.900;10.774;2023-08-31T04:16:53;8.57;;;5.95;;
39502;SDS011;26970;49.900;10.774;2023-08-31T04:19:18;9.75;;;5.82;;
39502;SDS011;26970;49.900;10.774;2023-08-31T04:21:44;9.75;;;5.70;;
39502;SDS011;26970;49.900;10.774;2023-08-31T04:24:09;15.70;;;6.68;;
39502;SDS011;26970;49.900;10.774;2023-08-31T04:26:35;10.27;;;5.40;;
39502;SDS011;26970;49.900;10.774;2023-08-31T04:29:02;12.23;;;6.30;;
39502;SDS011;26970;49.900;10.774;2023-08-31T04:31:30;12.82;;;7.20;;
39502;SDS011;26970;49.900;10.774;2023-08-31T04:33:59;9.00;;;6.30;;
39502;SDS011;26970;49.900;10.774;2023-08-31T04:36:24;10.07;;;6.63;;
39502;SDS011;26970;49.900;10.774;2023-08-31T04:38:53;12.35;;;6.10;;
39502;SDS011;26970;49.900;10.774;2023-08-31T04:41:18;9.30;;;6.88;;
39502;SDS011;26970;49.900;10.774;2023-08-31T04:43:44;12.50;;;7.32;;
39502;SDS011;26970;49.900;10.774;2023-08-31T04:46:12;14.52;;;7.35;;
39502;SDS011;26970;49.900;10.774;2023-08-31T04:48:38;15.00;;;8.00;;
39502;SDS011;26970;49.900;10.774;2023-08-31T04:51:04;10.73;;;7.75;;
39502;SDS011;26970;49.900;10.774;2023-08-31T04:53:30;12.10;;;7.63;;
39502;SDS011;26970;49.900;10.774;2023-08-31T04:55:56;11.05;;;7.40;;
39502;SDS011;26970;49.900;10.774;2023-08-31T04:58:22;9.90;;;6.80;;
39502;SDS011;26970;49.900;10.774;2023-08-31T05:00:47;11.00;;;7.70;;
39502;SDS011;26970;49.900;10.774;2023-08-31T05:03:13;8.95;;;7.43;;
39502;SDS011;26970;49.900;10.774;2023-08-31T05:05:39;13.15;;;7.68;;
39502;SDS011;26970;49.900;10.774;2023-08-31T05:08:07;10.75;;;7.97;;
39502;SDS011;26970;49.900;10.774;2023-08-31T05:10:33;15.10;;;8.02;;
39502;SDS011;26970;49.900;10.774;2023-08-31T05:12:59;13.68;;;7.75;;
39502;SDS011;26970;49.900;10.774;2023-08-31T05:15:24;12.40;;;7.57;;
39502;SDS011;26970;49.900;10.774;2023-08-31T05:17:52;11.35;;;7.55;;
39502;SDS011;26970;49.900;10.774;2023-08-31T05:20:18;10.25;;;6.65;;
39502;SDS011;26970;49.900;10.774;2023-08-31T05:22:44;15.27;;;7.82;;
39502;SDS011;26970;49.900;10.774;2023-08-31T05:25:09;10.77;;;6.07;;
39502;SDS011;26970;49.900;10.774;2023-08-31T05:27:35;8.80;;;5.75;;
39502;SDS011;26970;49.900;10.774;2023-08-31T05:30:00;7.95;;;6.32;;
39502;SDS011;26970;49.900;10.774;2023-08-31T05:32:27;9.23;;;6.00;;
39502;SDS011;26970;49.900;10.774;2023-08-31T05:34:54;10.63;;;6.60;;
39502;SDS011;26970;49.900;10.774;2023-08-31T05:37:20;9.60;;;6.72;;
39502;SDS011;26970;49.900;10.774;2023-08-31T05:39:48;9.05;;;6.57;;
39502;SDS011;26970;49.900;10.774;2023-08-31T05:42:14;9.73;;;6.45;;
39502;SDS011;26970;49.900;10.774;2023-08-31T05:44:40;10.63;;;6.90;;
39502;SDS011;26970;49.900;10.774;2023-08-31T05:47:06;11.23;;;6.95;;
39502;SDS011;26970;49.900;10.774;2023-08-31T05:49:31;12.95;;;7.75;;
39502;SDS011;26970;49.900;10.774;2023-08-31T05:51:58;13.52;;;7.03;;
39502;SDS011;26970;49.900;10.774;2023-08-31T05:54:23;10.63;;;6.63;;
39502;SDS011;26970;49.900;10.774;2023-08-31T05:56:49;10.00;;;6.60;;
39502;SDS011;26970;49.900;10.774;2023-08-31T05:59:14;9.48;;;6.57;;
39502;SDS011;26970;49.900;10.774;2023-08-31T06:01:40;11.27;;;6.95;;
39502;SDS011;26970;49.900;10.774;2023-08-31T06:04:05;11.52;;;7.15;;
39502;SDS011;26970;49.900;10.774;2023-08-31T06:06:31;10.88;;;6.57;;
39502;SDS011;26970;49.900;10.774;2023-08-31T06:08:58;12.18;;;7.60;;
39502;SDS011;26970;49.900;10.774;2023-08-31T06:11:23;12.88;;;6.18;;
39502;SDS011;26970;49.900;10.774;2023-08-31T06:13:49;11.25;;;7.43;;
39502;SDS011;26970;49.900;10.774;2023-08-31T06:16:14;12.27;;;7.53;;
39502;SDS011;26970;49.900;10.774;2023-08-31T06:18:40;11.85;;;7.75;;
39502;SDS011;26970;49.900;10.774;2023-08-31T06:21:05;12.43;;;7.82;;
39502;SDS011;26970;49.900;10.774;2023-08-31T06:23:31;15.10;;;7.93;;
39502;SDS011;26970;49.900;10.774;2023-08-31T06:25:56;11.35;;;6.60;;
39502;SDS011;26970;49.900;10.774;2023-08-31T06:28:22;10.73;;;7.40;;
39502;SDS011;26970;49.900;10.774;2023-08-31T06:30:47;10.90;;;7.68;;
39502;SDS011;26970;49.900;10.774;2023-08-31T06:33:13;11.90;;;7.70;;
39502;SDS011;26970;49.900;10.774;2023-08-31T06:35:39;11.05;;;7.63;;
39502;SDS011;26970;49.900;10.774;2023-08-31T06:38:05;14.13;;;7.38;;
39502;SDS011;26970;49.900;10.774;2023-08-31T06:40:31;10.52;;;7.22;;
39502;SDS011;26970;49.900;10.774;2023-08-31T06:42:57;12.45;;;7.13;;
39502;SDS011;26970;49.900;10.774;2023-08-31T06:45:22;11.30;;;7.43;;
39502;SDS011;26970;49.900;10.774;2023-08-31T06:47:48;11.90;;;7.30;;
39502;SDS011;26970;49.900;10.774;2023-08-31T06:50:13;10.77;;;7.47;;
39502;SDS011;26970;49.900;10.774;2023-08-31T06:52:39;11.25;;;7.72;;
39502;SDS011;26970;49.900;10.774;2023-08-31T06:55:06;12.63;;;7.93;;
39502;SDS011;26970;49.900;10.774;2023-08-31T06:57:32;10.48;;;7.82;;
39502;SDS011;26970;49.900;10.774;2023-08-31T06:59:57;23.77;;;8.32;;
39502;SDS011;26970;49.900;10.774;2023-08-31T07:02:25;13.70;;;7.43;;
39502;SDS011;26970;49.900;10.774;2023-08-31T07:04:51;9.40;;;7.50;;
39502;SDS011;26970;49.900;10.774;2023-08-31T07:07:17;11.95;;;7.40;;
39502;SDS011;26970;49.900;10.774;2023-08-31T07:09:43;10.73;;;7.45;;
39502;SDS011;26970;49.900;10.774;2023-08-31T07:12:10;12.23;;;7.05;;
39502;SDS011;26970;49.900;10.774;2023-08-31T07:14:36;13.32;;;7.40;;
39502;SDS011;26970;49.900;10.774;2023-08-31T07:17:02;9.93;;;7.22;;
39502;SDS011;26970;49.900;10.774;2023-08-31T07:19:28;11.65;;;7.18;;
39502;SDS011;26970;49.900;10.774;2023-08-31T07:21:54;11.65;;;7.47;;
39502;SDS011;26970;49.900;10.774;2023-08-31T07:24:22;9.30;;;6.63;;
39502;SDS011;26970;49.900;10.774;2023-08-31T07:26:49;11.88;;;7.10;;
39502;SDS011;26970;49.900;10.774;2023-08-31T07:29:15;12.07;;;6.43;;
39502;SDS011;26970;49.900;10.774;2023-08-31T07:31:40;9.85;;;6.97;;
39502;SDS011;26970;49.900;10.774;2023-08-31T07:34:06;11.35;;;6.75;;
39502;SDS011;26970;49.900;10.774;2023-08-31T07:36:32;12.88;;;6.03;;
39502;SDS011;26970;49.900;10.774;2023-08-31T07:38:58;11.68;;;6.45;;
39502;SDS011;26970;49.900;10.774;2023-08-31T07:41:23;11.40;;;6.45;;
39502;SDS011;26970;49.900;10.774;2023-08-31T07:43:49;8.02;;;5.43;;
39502;SDS011;26970;49.900;10.774;2023-08-31T07:46:15;8.27;;;5.05;;
39502;SDS011;26970;49.900;10.774;2023-08-31T07:48:41;8.63;;;5.20;;
39502;SDS011;26970;49.900;10.774;2023-08-31T07:51:07;8.65;;;3.90;;
39502;SDS011;26970;49.900;10.774;2023-08-31T07:53:33;7.70;;;5.00;;
39502;SDS011;26970;49.900;10.774;2023-08-31T07:55:58;7.93;;;4.03;;
39502;SDS011;26970;49.900;10.774;2023-08-31T07:58:24;6.50;;;3.90;;
39502;SDS011;26970;49.900;10.774;2023-08-31T08:00:57;8.73;;;4.13;;
39502;SDS011;26970;49.900;10.774;2023-08-31T08:03:23;8.13;;;4.05;;
39502;SDS011;26970;49.900;10.774;2023-08-31T08:05:49;7.07;;;3.20;;
39502;SDS011;26970;49.900;10.774;2023-08-31T08:08:14;9.07;;;3.83;;
39502;SDS011;26970;49.900;10.774;2023-08-31T08:10:41;8.68;;;3.85;;
39502;SDS011;26970;49.900;10.774;2023-08-31T08:13:08;10.85;;;3.60;;
39502;SDS011;26970;49.900;10.774;2023-08-31T08:15:34;7.28;;;3.22;;
39502;SDS011;26970;49.900;10.774;2023-08-31T08:18:00;6.40;;;3.28;;
39502;SDS011;26970;49.900;10.774;2023-08-31T08:20:26;8.02;;;3.50;;
39502;SDS011;26970;49.900;10.774;2023-08-31T08:22:52;6.57;;;3.30;;
39502;SDS011;26970;49.900;10.774;2023-08-31T08:25:19;7.43;;;3.53;;
39502;SDS011;26970;49.900;10.774;2023-08-31T08:27:44;6.20;;;2.90;;
39502;SDS011;26970;49.900;10.774;2023-08-31T08:30:10;6.28;;;2.90;;
39502;SDS011;26970;49.900;10.774;2023-08-31T08:32:36;6.95;;;3.03;;
39502;SDS011;26970;49.900;10.774;2023-08-31T08:35:01;5.07;;;2.80;;
39502;SDS011;26970;49.900;10.774;2023-08-31T08:37:27;6.45;;;3.00;;
39502;SDS011;26970;49.900;10.774;2023-08-31T08:39:54;5.25;;;2.75;;
39502;SDS011;26970;49.900;10.774;2023-08-31T08:42:20;7.78;;;3.20;;
39502;SDS011;26970;49.900;10.774;2023-08-31T08:44:49;6.28;;;2.38;;
39502;SDS011;26970;49.900;10.774;2023-08-31T08:47:15;7.80;;;3.17;;
39502;SDS011;26970;49.900;10.774;2023-08-31T08:49:42;5.82;;;2.97;;
39502;SDS011;26970;49.900;10.774;2023-08-31T08:52:08;5.28;;;2.78;;
39502;SDS011;26970;49.900;10.774;2023-08-31T08:54:34;4.80;;;2.70;;
39502;SDS011;26970;49.900;10.774;2023-08-31T08:57:00;5.68;;;2.67;;
39502;SDS011;26970;49.900;10.774;2023-08-31T08:59:26;6.38;;;2.90;;
39502;SDS011;26970;49.900;10.774;2023-08-31T09:01:52;4.38;;;2.15;;
39502;SDS011;26970;49.900;10.774;2023-08-31T09:04:18;6.80;;;2.63;;
39502;SDS011;26970;49.900;10.774;2023-08-31T09:06:44;5.78;;;2.83;;
39502;SDS011;26970;49.900;10.774;2023-08-31T09:09:10;3.80;;;2.30;;
39502;SDS011;26970;49.900;10.774;2023-08-31T09:11:36;4.18;;;2.30;;
39502;SDS011;26970;49.900;10.774;2023-08-31T09:14:18;4.88;;;2.38;;
39502;SDS011;26970;49.900;10.774;2023-08-31T09:16:45;6.20;;;2.40;;
39502;SDS011;26970;49.900;10.774;2023-08-31T09:19:18;8.25;;;2.63;;
39502;SDS011;26970;49.900;10.774;2023-08-31T09:21:44;8.10;;;2.50;;
39502;SDS011;26970;49.900;10.774;2023-08-31T09:24:11;6.70;;;2.28;;
39502;SDS011;26970;49.900;10.774;2023-08-31T09:26:38;3.60;;;2.00;;
39502;SDS011;26970;49.900;10.774;2023-08-31T09:29:05;5.88;;;2.25;;
39502;SDS011;26970;49.900;10.774;2023-08-31T09:31:31;7.18;;;2.28;;
39502;SDS011;26970;49.900;10.774;2023-08-31T09:33:57;4.63;;;2.03;;
39502;SDS011;26970;49.900;10.774;2023-08-31T09:36:23;4.75;;;2.35;;
39502;SDS011;26970;49.900;10.774;2023-08-31T09:38:48;6.53;;;2.10;;
39502;SDS011;26970;49.900;10.774;2023-08-31T09:41:14;5.30;;;2.30;;
39502;SDS011;26970;49.900;10.774;2023-08-31T09:43:40;5.47;;;2.20;;
39502;SDS011;26970;49.900;10.774;2023-08-31T09:46:06;4.20;;;2.05;;
39502;SDS011;26970;49.900;10.774;2023-08-31T09:48:34;4.75;;;2.13;;
39502;SDS011;26970;49.900;10.774;2023-08-31T09:51:03;3.97;;;2.20;;
39502;SDS011;26970;49.900;10.774;2023-08-31T09:53:29;5.35;;;2.55;;
39502;SDS011;26970;49.900;10.774;2023-08-31T09:55:56;4.45;;;2.33;;
39502;SDS011;26970;49.900;10.774;2023-08-31T09:58:22;4.43;;;1.95;;
39502;SDS011;26970;49.900;10.774;2023-08-31T10:00:49;4.25;;;1.90;;
39502;SDS011;26970;49.900;10.774;2023-08-31T10:03:16;4.47;;;1.83;;
39502;SDS011;26970;49.900;10.774;2023-08-31T10:05:46;4.25;;;2.00;;
39502;SDS011;26970;49.900;10.774;2023-08-31T10:08:13;4.40;;;2.07;;
39502;SDS011;26970;49.900;10.774;2023-08-31T10:10:40;5.38;;;2.08;;
39502;SDS011;26970;49.900;10.774;2023-08-31T10:13:06;4.88;;;2.45;;
39502;SDS011;26970;49.900;10.774;2023-08-31T10:15:32;7.75;;;2.40;;
39502;SDS011;26970;49.900;10.774;2023-08-31T10:17:59;4.97;;;1.92;;
39502;SDS011;26970;49.900;10.774;2023-08-31T10:20:26;3.72;;;1.90;;
39502;SDS011;26970;49.900;10.774;2023-08-31T10:22:54;5.63;;;2.38;;
39502;SDS011;26970;49.900;10.774;2023-08-31T10:25:22;4.95;;;2.30;;
39502;SDS011;26970;49.900;10.774;2023-08-31T10:27:48;6.70;;;2.30;;
39502;SDS011;26970;49.900;10.774;2023-08-31T10:35:50;5.13;;;2.35;;
39502;SDS011;26970;49.900;10.774;2023-08-31T10:38:32;5.10;;;2.30;;
39502;SDS011;26970;49.900;10.774;2023-08-31T10:43:27;7.63;;;2.40;;
39502;SDS011;26970;49.900;10.774;2023-08-31T10:46:25;5.45;;;2.10;;
39502;SDS011;26970;49.900;10.774;2023-08-31T10:51:22;6.38;;;2.40;;
39502;SDS011;26970;49.900;10.774;2023-08-31T10:53:52;5.50;;;2.05;;
39502;SDS011;26970;49.900;10.774;2023-08-31T10:56:29;4.45;;;2.20;;
39502;SDS011;26970;49.900;10.774;2023-08-31T10:59:01;3.72;;;2.08;;
39502;SDS011;26970;49.900;10.774;2023-08-31T11:04:27;6.07;;;2.10;;
39502;SDS011;26970;49.900;10.774;2023-08-31T11:07:36;6.72;;;2.10;;
39502;SDS011;26970;49.900;10.774;2023-08-31T11:09:44;4.25;;;2.20;;
39502;SDS011;26970;49.900;10.774;2023-08-31T11:12:11;6.10;;;2.30;;
39502;SDS011;26970;49.900;10.774;2023-08-31T11:14:37;6.20;;;2.20;;
39502;SDS011;26970;49.900;10.774;2023-08-31T11:17:04;4.93;;;1.90;;
39502;SDS011;26970;49.900;10.774;2023-08-31T11:19:30;3.78;;;1.95;;
39502;SDS011;26970;49.900;10.774;2023-08-31T11:21:57;5.70;;;2.10;;
39502;SDS011;26970;49.900;10.774;2023-08-31T11:24:25;3.72;;;2.00;;
39502;SDS011;26970;49.900;10.774;2023-08-31T11:26:51;5.45;;;2.20;;
39502;SDS011;26970;49.900;10.774;2023-08-31T11:29:18;5.20;;;2.03;;
39502;SDS011;26970;49.900;10.774;2023-08-31T11:31:43;6.22;;;2.10;;
39502;SDS011;26970;49.900;10.774;2023-08-31T11:34:12;5.35;;;2.00;;
39502;SDS011;26970;49.900;10.774;2023-08-31T11:36:39;4.38;;;2.00;;
39502;SDS011;26970;49.900;10.774;2023-08-31T11:39:07;7.18;;;2.28;;
39502;SDS011;26970;49.900;10.774;2023-08-31T11:41:33;5.18;;;1.90;;
39502;SDS011;26970;49.900;10.774;2023-08-31T11:44:01;5.60;;;2.53;;
39502;SDS011;26970;49.900;10.774;2023-08-31T11:46:28;4.75;;;2.10;;
39502;SDS011;26970;49.900;10.774;2023-08-31T11:48:55;3.63;;;2.00;;
39502;SDS011;26970;49.900;10.774;2023-08-31T11:51:21;4.70;;;2.20;;
39502;SDS011;26970;49.900;10.774;2023-08-31T11:53:47;4.38;;;2.13;;
39502;SDS011;26970;49.900;10.774;2023-08-31T11:56:13;3.97;;;2.40;;
39502;SDS011;26970;49.900;10.774;2023-08-31T11:58:41;5.13;;;2.10;;
39502;SDS011;26970;49.900;10.774;2023-08-31T12:01:07;3.65;;;1.90;;
39502;SDS011;26970;49.900;10.774;2023-08-31T12:03:42;5.15;;;2.17;;
39502;SDS011;26970;49.900;10.774;2023-08-31T12:06:14;4.00;;;2.15;;
39502;SDS011;26970;49.900;10.774;2023-08-31T12:08:42;3.65;;;2.00;;
39502;SDS011;26970;49.900;10.774;2023-08-31T12:11:08;7.28;;;2.40;;
39502;SDS011;26970;49.900;10.774;2023-08-31T12:13:33;3.47;;;1.77;;
39502;SDS011;26970;49.900;10.774;2023-08-31T12:15:59;6.90;;;2.22;;
39502;SDS011;26970;49.900;10.774;2023-08-31T12:18:29;4.68;;;1.95;;
39502;SDS011;26970;49.900;10.774;2023-08-31T12:20:56;5.88;;;2.22;;
39502;SDS011;26970;49.900;10.774;2023-08-31T12:23:22;10.27;;;2.10;;
39502;SDS011;26970;49.900;10.774;2023-08-31T12:25:52;4.28;;;1.88;;
39502;SDS011;26970;49.900;10.774;2023-08-31T12:28:18;7.50;;;2.00;;
39502;SDS011;26970;49.900;10.774;2023-08-31T12:30:48;5.13;;;1.70;;
39502;SDS011;26970;49.900;10.774;2023-08-31T12:33:15;3.17;;;1.85;;
39502;SDS011;26970;49.900;10.774;2023-08-31T12:35:42;4.15;;;1.80;;
39502;SDS011;26970;49.900;10.774;2023-08-31T12:38:08;6.03;;;2.30;;
39502;SDS011;26970;49.900;10.774;2023-08-31T12:40:34;4.40;;;2.38;;
39502;SDS011;26970;49.900;10.774;2023-08-31T12:42:59;3.67;;;1.88;;
39502;SDS011;26970;49.900;10.774;2023-08-31T12:45:25;3.90;;;2.08;;
39502;SDS011;26970;49.900;10.774;2023-08-31T12:47:50;7.05;;;2.30;;
39502;SDS011;26970;49.900;10.774;2023-08-31T12:50:16;7.15;;;2.25;;
39502;SDS011;26970;49.900;10.774;2023-08-31T12:52:42;3.45;;;1.85;;
39502;SDS011;26970;49.900;10.774;2023-08-31T12:55:14;5.40;;;2.22;;
39502;SDS011;26970;49.900;10.774;2023-08-31T12:57:40;4.20;;;2.28;;
39502;SDS011;26970;49.900;10.774;2023-08-31T13:00:07;4.28;;;2.00;;
39502;SDS011;26970;49.900;10.774;2023-08-31T13:02:37;3.42;;;1.77;;
39502;SDS011;26970;49.900;10.774;2023-08-31T13:05:03;4.03;;;1.77;;
39502;SDS011;26970;49.900;10.774;2023-08-31T13:07:30;4.40;;;2.05;;
39502;SDS011;26970;49.900;10.774;2023-08-31T13:09:57;5.85;;;2.50;;
39502;SDS011;26970;49.900;10.774;2023-08-31T13:12:24;4.32;;;2.38;;
39502;SDS011;26970;49.900;10.774;2023-08-31T13:14:50;5.47;;;2.15;;
39502;SDS011;26970;49.900;10.774;2023-08-31T13:17:15;4.57;;;2.03;;
39502;SDS011;26970;49.900;10.774;2023-08-31T13:19:41;6.95;;;2.00;;
39502;SDS011;26970;49.900;10.774;2023-08-31T13:22:06;8.65;;;2.55;;
39502;SDS011;26970;49.900;10.774;2023-08-31T13:24:32;3.55;;;1.75;;
39502;SDS011;26970;49.900;10.774;2023-08-31T13:26:57;5.50;;;2.05;;
39502;SDS011;26970;49.900;10.774;2023-08-31T13:29:23;6.53;;;2.10;;
39502;SDS011;26970;49.900;10.774;2023-08-31T13:31:49;3.45;;;1.75;;
39502;SDS011;26970;49.900;10.774;2023-08-31T13:34:14;4.55;;;1.98;;
39502;SDS011;26970;49.900;10.774;2023-08-31T13:36:40;5.32;;;2.20;;
39502;SDS011;26970;49.900;10.774;2023-08-31T13:39:06;4.97;;;1.83;;
39502;SDS011;26970;49.900;10.774;2023-08-31T13:41:32;3.75;;;1.98;;
39502;SDS011;26970;49.900;10.774;2023-08-31T13:43:58;4.97;;;2.20;;
39502;SDS011;26970;49.900;10.774;2023-08-31T13:46:23;3.63;;;2.08;;
39502;SDS011;26970;49.900;10.774;2023-08-31T13:48:49;4.88;;;1.92;;
39502;SDS011;26970;49.900;10.774;2023-08-31T13:51:14;4.35;;;2.10;;
39502;SDS011;26970;49.900;10.774;2023-08-31T13:53:40;3.10;;;1.80;;
39502;SDS011;26970;49.900;10.774;2023-08-31T13:56:06;6.32;;;2.40;;
39502;SDS011;26970;49.900;10.774;2023-08-31T13:58:31;6.15;;;2.05;;
39502;SDS011;26970;49.900;10.774;2023-08-31T14:00:57;4.10;;;1.98;;
39502;SDS011;26970;49.900;10.774;2023-08-31T14:03:26;4.13;;;2.17;;
39502;SDS011;26970;49.900;10.774;2023-08-31T14:05:52;4.20;;;1.90;;
39502;SDS011;26970;49.900;10.774;2023-08-31T14:08:17;5.45;;;2.10;;
39502;SDS011;26970;49.900;10.774;2023-08-31T14:10:43;6.72;;;2.08;;
39502;SDS011;26970;49.900;10.774;2023-08-31T14:13:08;4.05;;;1.90;;
39502;SDS011;26970;49.900;10.774;2023-08-31T14:15:34;4.72;;;2.03;;
39502;SDS011;26970;49.900;10.774;2023-08-31T14:17:59;5.75;;;2.05;;
39502;SDS011;26970;49.900;10.774;2023-08-31T14:20:25;6.57;;;2.38;;
39502;SDS011;26970;49.900;10.774;2023-08-31T14:22:51;5.28;;;1.95;;
39502;SDS011;26970;49.900;10.774;2023-08-31T14:25:16;9.23;;;2.30;;
39502;SDS011;26970;49.900;10.774;2023-08-31T14:27:42;5.90;;;2.22;;
39502;SDS011;26970;49.900;10.774;2023-08-31T14:30:08;4.85;;;2.25;;
39502;SDS011;26970;49.900;10.774;2023-08-31T14:32:34;5.18;;;2.20;;
39502;SDS011;26970;49.900;10.774;2023-08-31T14:35:00;4.35;;;1.90;;
39502;SDS011;26970;49.900;10.774;2023-08-31T14:37:25;3.53;;;1.80;;
39502;SDS011;26970;49.900;10.774;2023-08-31T14:39:51;5.05;;;1.98;;
39502;SDS011;26970;49.900;10.774;2023-08-31T14:42:17;6.18;;;2.10;;
39502;SDS011;26970;49.900;10.774;2023-08-31T14:44:45;6.22;;;2.03;;